aviador You're here:

UATE Decoded Metar

SHEVCHENKO in KAZAKHSTAN
Report Time2018-06-23 13:30:00
UTC Time2018-06-23 13:57:59
Flight Rules vfr VFR
Wind300° at 14 kt
W.Decomp.*RWY 30: 13.9 kt HW 1.5 kt LCW
W.Rank300° ranks 5
Current wind is above 300° avg. (11.0)
Visibility9999 m
Phenomena:N/A
Clouds:N/A
Expected CloudBase > 9,600 ft AGL from Temp-Dew spread
CeilingNone
Temp31°C (ISA +16)
Dew Point07°C (22% RH)
Heat Index29.2°C
AAT25.2°C
QNH1008 hPa
Density Alt2,224 ft
Elevation72 ft
Report Wrong Elevation
Raw Report
METAR UATE 231330Z 30007MPS 260V330 CAVOK 31/07 Q1008 R30/0///70 NOSIG
RMK QFE755/1006=

Extra information for UATE:More info

Metar Taf Metar & Taf Last 4 Metars F.Rules Stats Wind Profile Meteogram Temp Stats Airport Information Weather charts Add Link Nearby VenuesMetar ALERT Operation Metar Decoded Social comments